Time;durP1;ratioP1;P1;durP2;ratioP2;P2;SDS_P1;SDS_P2;PMS_P1;PMS_P2;Temp;Humidity;BMP_temperature;BMP_pressure;BME280_temperature;BME280_humidity;BME280_pressure;Samples;Min_cycle;Max_cycle;Signal;HPM_P1;HPM_P2
2023/03/06 00:01:53;;;;;;;24.63;14.02;;;;;;;;;;5101977;28;20233;-68
2023/03/06 00:04:19;;;;;;;28.13;15.70;;;;;;;;;;5103906;28;20202;-67
2023/03/06 00:06:45;;;;;;;28.55;15.95;;;;;;;;;;5105660;28;20192;-68
2023/03/06 00:09:12;;;;;;;28.08;14.40;;;;;;;;;;5105188;28;20195;-68
2023/03/06 00:11:38;;;;;;;27.27;14.68;;;;;;;;;;5105594;28;20526;-68
2023/03/06 00:14:04;;;;;;;27.75;14.55;;;;;;;;;;5105563;28;20202;-68
2023/03/06 00:16:32;;;;;;;24.38;14.68;;;;;;;;;;5105307;28;20227;-68
2023/03/06 00:18:58;;;;;;;23.08;14.65;;;;;;;;;;5105462;28;20233;-68
2023/03/06 00:21:24;;;;;;;24.52;14.13;;;;;;;;;;5105492;28;20196;-68
2023/03/06 00:23:50;;;;;;;28.35;15.20;;;;;;;;;;5105310;28;20195;-67
2023/03/06 00:26:17;;;;;;;23.92;14.50;;;;;;;;;;5105234;28;20236;-68
2023/03/06 00:28:43;;;;;;;27.52;14.93;;;;;;;;;;5104894;28;20215;-67
2023/03/06 00:31:09;;;;;;;27.00;15.27;;;;;;;;;;5105069;28;20496;-67
2023/03/06 00:33:37;;;;;;;24.08;15.48;;;;;;;;;;5105513;28;20357;-68
2023/03/06 00:36:04;;;;;;;32.70;16.67;;;;;;;;;;5105111;28;20234;-68
2023/03/06 00:38:32;;;;;;;26.48;16.08;;;;;;;;;;5104916;28;20233;-68
2023/03/06 00:40:58;;;;;;;28.42;16.42;;;;;;;;;;5105278;28;20192;-68
2023/03/06 00:43:25;;;;;;;31.13;17.80;;;;;;;;;;5105041;28;20491;-68
2023/03/06 00:45:51;;;;;;;25.75;16.90;;;;;;;;;;5104927;28;20208;-68
2023/03/06 00:48:17;;;;;;;27.40;16.52;;;;;;;;;;5104652;28;20241;-70
2023/03/06 00:50:45;;;;;;;33.58;16.52;;;;;;;;;;5104736;28;20200;-68
2023/03/06 00:53:12;;;;;;;26.85;16.73;;;;;;;;;;5105124;28;20499;-68
2023/03/06 00:55:38;;;;;;;29.85;16.92;;;;;;;;;;5104702;28;20195;-68
2023/03/06 00:58:04;;;;;;;29.23;16.98;;;;;;;;;;5104504;28;20241;-68
2023/03/06 01:00:30;;;;;;;26.40;16.63;;;;;;;;;;5104497;28;20423;-68
2023/03/06 01:02:57;;;;;;;28.70;16.73;;;;;;;;;;5104677;28;20196;-68
2023/03/06 01:05:23;;;;;;;30.23;16.25;;;;;;;;;;5104743;28;20195;-69
2023/03/06 01:07:51;;;;;;;28.27;17.52;;;;;;;;;;5104489;28;20450;-68
2023/03/06 01:10:17;;;;;;;31.60;17.23;;;;;;;;;;5104384;28;20436;-70
2023/03/06 01:12:44;;;;;;;31.83;16.90;;;;;;;;;;5104302;28;20196;-68
2023/03/06 01:15:11;;;;;;;29.02;17.58;;;;;;;;;;5104079;28;20196;-68
2023/03/06 01:17:37;;;;;;;27.83;16.58;;;;;;;;;;5104213;28;20215;-68
2023/03/06 01:20:04;;;;;;;25.45;16.48;;;;;;;;;;5104310;28;20195;-67
2023/03/06 01:22:30;;;;;;;31.83;16.80;;;;;;;;;;5104199;28;20196;-68
2023/03/06 01:24:58;;;;;;;29.70;16.73;;;;;;;;;;5104115;28;20241;-68
2023/03/06 01:27:24;;;;;;;31.90;16.70;;;;;;;;;;5103810;28;20211;-68
2023/03/06 01:29:50;;;;;;;25.15;16.40;;;;;;;;;;5104246;28;20196;-68
2023/03/06 01:32:16;;;;;;;30.20;16.80;;;;;;;;;;5104253;28;20199;-67
2023/03/06 01:34:43;;;;;;;31.52;16.98;;;;;;;;;;5103842;28;20196;-67
2023/03/06 01:37:09;;;;;;;30.42;17.05;;;;;;;;;;5103683;28;20527;-68
2023/03/06 01:39:35;;;;;;;27.80;16.17;;;;;;;;;;5103860;28;20196;-68
2023/03/06 01:42:03;;;;;;;28.25;17.05;;;;;;;;;;5103758;28;20242;-68
2023/03/06 01:44:29;;;;;;;28.23;15.55;;;;;;;;;;5103946;28;20224;-68
2023/03/06 01:46:55;;;;;;;30.17;18.02;;;;;;;;;;5103809;28;20192;-68
2023/03/06 01:49:23;;;;;;;26.67;16.20;;;;;;;;;;5103544;28;20462;-68
2023/03/06 01:51:51;;;;;;;28.85;16.67;;;;;;;;;;5103629;28;20196;-68
2023/03/06 01:54:20;;;;;;;31.52;18.13;;;;;;;;;;5104009;28;20249;-68
2023/03/06 01:56:48;;;;;;;30.77;16.90;;;;;;;;;;5103351;28;20222;-68
2023/03/06 01:59:16;;;;;;;33.60;17.80;;;;;;;;;;5103205;28;20253;-68
2023/03/06 02:01:48;;;;;;;27.40;16.67;;;;;;;;;;5103321;28;20241;-68
2023/03/06 02:04:14;;;;;;;27.42;18.10;;;;;;;;;;5103028;28;20199;-68
2023/03/06 02:06:42;;;;;;;33.85;17.63;;;;;;;;;;5103181;28;20192;-67
2023/03/06 02:09:09;;;;;;;29.05;17.65;;;;;;;;;;5103045;28;20203;-68
2023/03/06 02:11:35;;;;;;;29.08;16.63;;;;;;;;;;5103226;28;20199;-68
2023/03/06 02:14:02;;;;;;;29.38;17.10;;;;;;;;;;5103204;28;20467;-68
2023/03/06 02:16:30;;;;;;;27.17;17.13;;;;;;;;;;5102923;28;20212;-68
2023/03/06 02:18:58;;;;;;;30.65;17.00;;;;;;;;;;5103024;28;20204;-68
2023/03/06 02:21:25;;;;;;;32.33;16.98;;;;;;;;;;5103176;28;20432;-67
2023/03/06 02:23:56;;;;;;;33.75;18.45;;;;;;;;;;5103131;28;20686;-68
2023/03/06 02:26:24;;;;;;;30.27;17.75;;;;;;;;;;5102439;28;20199;-68
2023/03/06 02:28:50;;;;;;;27.58;16.80;;;;;;;;;;5102812;28;20230;-68
2023/03/06 02:31:21;;;;;;;28.50;16.95;;;;;;;;;;5102993;28;20380;-67
2023/03/06 02:33:47;;;;;;;27.90;17.15;;;;;;;;;;5103364;28;20200;-68
2023/03/06 02:36:14;;;;;;;26.88;16.00;;;;;;;;;;5102862;28;20202;-68
2023/03/06 02:38:44;;;;;;;28.80;16.17;;;;;;;;;;5102579;28;20200;-68
2023/03/06 02:41:10;;;;;;;28.15;17.25;;;;;;;;;;5102927;28;20196;-68
2023/03/06 02:43:39;;;;;;;32.38;17.05;;;;;;;;;;5102559;28;20196;-67
2023/03/06 02:46:06;;;;;;;33.53;17.02;;;;;;;;;;5102764;28;20395;-68
2023/03/06 02:48:32;;;;;;;32.88;17.02;;;;;;;;;;5102427;28;20237;-68
2023/03/06 02:50:58;;;;;;;30.52;17.10;;;;;;;;;;5102649;28;20418;-68
2023/03/06 02:53:25;;;;;;;33.13;17.75;;;;;;;;;;5102607;28;20217;-68
2023/03/06 02:55:51;;;;;;;27.38;15.65;;;;;;;;;;5102446;28;20204;-68
2023/03/06 02:58:18;;;;;;;26.90;17.00;;;;;;;;;;5102010;28;20265;-68
2023/03/06 03:00:46;;;;;;;31.60;17.13;;;;;;;;;;5102167;28;20196;-68
2023/03/06 03:03:12;;;;;;;29.60;18.02;;;;;;;;;;5102350;28;20207;-68
2023/03/06 03:05:38;;;;;;;29.17;16.85;;;;;;;;;;5102251;28;20203;-68
2023/03/06 03:08:05;;;;;;;30.88;17.00;;;;;;;;;;5102288;28;20536;-68
2023/03/06 03:10:31;;;;;;;31.20;17.52;;;;;;;;;;5102166;28;20257;-68
2023/03/06 03:12:58;;;;;;;29.33;18.02;;;;;;;;;;5102380;28;20215;-68
2023/03/06 03:15:24;;;;;;;33.30;16.95;;;;;;;;;;5102145;28;20380;-68
2023/03/06 03:17:52;;;;;;;26.60;16.48;;;;;;;;;;5101970;28;20242;-68
2023/03/06 03:20:19;;;;;;;27.08;15.75;;;;;;;;;;5102138;28;20429;-68
2023/03/06 03:22:47;;;;;;;29.55;16.50;;;;;;;;;;5102054;28;20233;-68
2023/03/06 03:25:13;;;;;;;31.05;17.75;;;;;;;;;;5102248;28;20425;-68
2023/03/06 03:27:40;;;;;;;33.63;17.17;;;;;;;;;;5101400;28;20212;-68
2023/03/06 03:30:07;;;;;;;30.33;17.33;;;;;;;;;;5102078;28;20199;-68
2023/03/06 03:32:33;;;;;;;31.42;17.25;;;;;;;;;;5102044;28;20233;-68
2023/03/06 03:35:00;;;;;;;29.58;16.95;;;;;;;;;;5102273;28;20199;-68
2023/03/06 03:37:27;;;;;;;26.92;16.65;;;;;;;;;;5102439;28;20218;-68
2023/03/06 03:39:53;;;;;;;29.13;17.75;;;;;;;;;;5106223;28;20211;-68
2023/03/06 03:42:19;;;;;;;31.70;16.90;;;;;;;;;;5106141;28;20387;-68
2023/03/06 03:44:46;;;;;;;28.60;16.90;;;;;;;;;;5106099;28;20196;-68
2023/03/06 03:47:12;;;;;;;29.35;17.15;;;;;;;;;;5105760;28;20195;-68
2023/03/06 03:49:38;;;;;;;28.58;16.85;;;;;;;;;;5106171;28;20195;-68
2023/03/06 03:52:06;;;;;;;29.90;16.52;;;;;;;;;;5106057;28;20257;-68
2023/03/06 03:54:32;;;;;;;27.08;16.48;;;;;;;;;;5105858;28;20204;-68
2023/03/06 03:56:58;;;;;;;29.27;17.17;;;;;;;;;;5105766;28;20537;-68
2023/03/06 03:59:25;;;;;;;32.17;16.92;;;;;;;;;;5105613;28;20196;-68
2023/03/06 04:01:51;;;;;;;27.02;16.30;;;;;;;;;;5105518;28;20233;-68
2023/03/06 04:04:18;;;;;;;29.40;17.38;;;;;;;;;;5105740;28;20199;-68
2023/03/06 04:06:44;;;;;;;27.42;16.52;;;;;;;;;;5105823;28;20241;-68
2023/03/06 04:09:12;;;;;;;26.50;15.70;;;;;;;;;;5105496;28;20204;-68
2023/03/06 04:11:38;;;;;;;26.55;16.63;;;;;;;;;;5105903;28;20546;-68
2023/03/06 04:14:07;;;;;;;25.02;16.45;;;;;;;;;;5105612;28;20203;-68
2023/03/06 04:16:33;;;;;;;27.92;15.70;;;;;;;;;;5105285;28;20223;-68
2023/03/06 04:18:59;;;;;;;25.33;15.82;;;;;;;;;;5105214;28;20219;-69
2023/03/06 04:21:25;;;;;;;27.17;15.40;;;;;;;;;;5105371;28;20241;-70
2023/03/06 04:23:52;;;;;;;28.65;16.70;;;;;;;;;;5105406;28;20408;-70
2023/03/06 04:26:19;;;;;;;27.35;17.08;;;;;;;;;;5105352;28;20196;-68
2023/03/06 04:28:45;;;;;;;24.52;16.67;;;;;;;;;;5104974;28;20435;-70
2023/03/06 04:31:12;;;;;;;28.88;16.65;;;;;;;;;;5105215;28;20199;-67
2023/03/06 04:33:39;;;;;;;27.88;17.60;;;;;;;;;;5105340;28;20196;-68
2023/03/06 04:36:05;;;;;;;28.55;16.25;;;;;;;;;;5105029;28;20204;-68
2023/03/06 04:38:31;;;;;;;27.88;17.38;;;;;;;;;;5104886;28;20261;-67
2023/03/06 04:40:58;;;;;;;29.25;16.42;;;;;;;;;;5105110;28;20204;-68
2023/03/06 04:43:25;;;;;;;32.40;17.15;;;;;;;;;;5104982;28;20238;-67
2023/03/06 04:45:51;;;;;;;31.58;17.65;;;;;;;;;;5105145;28;20196;-69
2023/03/06 04:48:18;;;;;;;26.23;16.42;;;;;;;;;;5104737;28;20236;-69
2023/03/06 04:50:44;;;;;;;30.80;17.35;;;;;;;;;;5103945;28;20263;-68
2023/03/06 04:53:11;;;;;;;26.05;16.10;;;;;;;;;;5104835;28;20196;-67
2023/03/06 04:55:37;;;;;;;29.70;16.20;;;;;;;;;;5104666;28;20221;-67
2023/03/06 04:58:03;;;;;;;26.10;16.73;;;;;;;;;;5104397;28;20237;-67
2023/03/06 05:00:31;;;;;;;25.27;16.38;;;;;;;;;;5104587;28;20263;-69
2023/03/06 05:02:57;;;;;;;31.45;17.48;;;;;;;;;;5104421;28;20233;-69
2023/03/06 05:05:23;;;;;;;28.25;17.00;;;;;;;;;;5104704;28;20511;-69
2023/03/06 05:07:50;;;;;;;30.85;16.85;;;;;;;;;;5104335;28;20230;-69
2023/03/06 05:10:16;;;;;;;28.25;17.25;;;;;;;;;;5104286;28;20204;-68
2023/03/06 05:12:43;;;;;;;30.02;17.55;;;;;;;;;;5104380;28;20514;-68
2023/03/06 05:15:10;;;;;;;30.58;17.05;;;;;;;;;;5104551;28;20430;-68
2023/03/06 05:17:38;;;;;;;27.88;16.83;;;;;;;;;;5104185;28;20440;-69
2023/03/06 05:20:06;;;;;;;26.88;16.45;;;;;;;;;;5104323;28;20557;-70
2023/03/06 05:22:32;;;;;;;27.27;15.93;;;;;;;;;;5104193;28;20242;-69
2023/03/06 05:24:58;;;;;;;32.08;16.67;;;;;;;;;;5104119;28;20233;-69
2023/03/06 05:27:25;;;;;;;31.17;16.80;;;;;;;;;;5103960;28;20219;-68
2023/03/06 05:29:51;;;;;;;29.20;16.45;;;;;;;;;;5104152;28;20256;-69
2023/03/06 05:32:17;;;;;;;31.63;17.20;;;;;;;;;;5104256;28;20557;-68
2023/03/06 05:34:45;;;;;;;25.63;15.85;;;;;;;;;;5103966;28;20200;-68
2023/03/06 05:37:11;;;;;;;32.25;18.02;;;;;;;;;;5103877;28;20200;-68
2023/03/06 05:39:37;;;;;;;33.47;17.88;;;;;;;;;;5104246;28;20233;-69
2023/03/06 05:42:04;;;;;;;28.40;16.40;;;;;;;;;;5103730;28;20200;-69
2023/03/06 05:44:30;;;;;;;34.30;17.42;;;;;;;;;;5104045;28;20226;-69
2023/03/06 05:46:57;;;;;;;27.33;16.60;;;;;;;;;;5103865;28;20495;-69
2023/03/06 05:49:23;;;;;;;31.98;18.00;;;;;;;;;;5103532;28;20406;-69
2023/03/06 05:51:50;;;;;;;30.23;17.92;;;;;;;;;;5103955;28;20536;-69
2023/03/06 05:54:17;;;;;;;32.90;17.38;;;;;;;;;;5103489;28;20195;-69
2023/03/06 05:56:43;;;;;;;30.38;16.65;;;;;;;;;;5103399;28;20202;-69
2023/03/06 05:59:09;;;;;;;27.42;15.93;;;;;;;;;;5103415;28;20280;-69
2023/03/06 06:01:35;;;;;;;25.77;16.10;;;;;;;;;;5102764;28;20196;-69
2023/03/06 06:04:02;;;;;;;28.05;16.60;;;;;;;;;;5103093;28;20208;-69
2023/03/06 06:06:28;;;;;;;34.03;18.05;;;;;;;;;;5103192;28;20233;-69
2023/03/06 06:08:55;;;;;;;35.30;18.48;;;;;;;;;;5102745;28;20211;-69
2023/03/06 06:11:22;;;;;;;34.22;17.75;;;;;;;;;;5103392;28;20241;-69
2023/03/06 06:13:48;;;;;;;31.70;17.27;;;;;;;;;;5103188;28;20199;-69
2023/03/06 06:16:15;;;;;;;30.35;17.73;;;;;;;;;;5102930;28;20195;-69
2023/03/06 06:18:42;;;;;;;30.25;17.10;;;;;;;;;;5102679;28;20594;-69
2023/03/06 06:21:09;;;;;;;27.77;17.33;;;;;;;;;;5102929;28;20196;-69
2023/03/06 06:23:35;;;;;;;32.85;16.83;;;;;;;;;;5102747;28;20209;-69
2023/03/06 06:26:05;;;;;;;31.48;17.65;;;;;;;;;;5102877;28;20195;-69
2023/03/06 06:28:32;;;;;;;29.55;17.52;;;;;;;;;;5102381;28;20227;-69
2023/03/06 06:30:58;;;;;;;32.20;17.85;;;;;;;;;;5102870;28;20202;-69
2023/03/06 06:33:24;;;;;;;32.60;17.70;;;;;;;;;;5102768;28;20526;-69
2023/03/06 06:35:51;;;;;;;30.17;17.23;;;;;;;;;;5102489;28;20464;-69
2023/03/06 06:38:17;;;;;;;29.13;17.05;;;;;;;;;;5102685;28;20426;-69
2023/03/06 06:40:44;;;;;;;31.45;16.58;;;;;;;;;;5102655;28;20495;-69
2023/03/06 06:43:11;;;;;;;28.83;17.42;;;;;;;;;;5102678;28;20211;-69
2023/03/06 06:45:38;;;;;;;28.02;17.38;;;;;;;;;;5102861;28;20530;-69
2023/03/06 06:48:04;;;;;;;26.25;16.73;;;;;;;;;;5102317;28;20371;-69
2023/03/06 06:50:31;;;;;;;25.50;15.13;;;;;;;;;;5102662;28;20518;-69
2023/03/06 06:52:57;;;;;;;27.85;17.13;;;;;;;;;;5102747;28;20499;-69
2023/03/06 06:55:23;;;;;;;29.67;16.33;;;;;;;;;;5102722;28;20393;-69
2023/03/06 06:57:50;;;;;;;25.95;15.57;;;;;;;;;;5102352;28;20535;-69
2023/03/06 07:00:18;;;;;;;27.08;15.85;;;;;;;;;;5102836;28;20195;-70
2023/03/06 07:02:47;;;;;;;24.17;15.25;;;;;;;;;;5102575;28;20200;-69
2023/03/06 07:05:14;;;;;;;26.67;15.77;;;;;;;;;;5102481;28;20203;-69
2023/03/06 07:07:40;;;;;;;23.52;14.85;;;;;;;;;;5102203;28;20199;-69
2023/03/06 07:10:07;;;;;;;32.20;14.90;;;;;;;;;;5102544;28;20208;-68
2023/03/06 07:12:34;;;;;;;23.63;14.55;;;;;;;;;;5102175;28;20195;-68
2023/03/06 07:15:00;;;;;;;26.63;14.98;;;;;;;;;;5102305;28;20200;-68
2023/03/06 07:17:28;;;;;;;24.08;14.88;;;;;;;;;;5101997;28;20495;-68
2023/03/06 07:19:54;;;;;;;26.42;15.23;;;;;;;;;;5102404;28;20403;-68
2023/03/06 07:22:20;;;;;;;21.75;14.98;;;;;;;;;;5102488;28;20413;-69
2023/03/06 07:24:47;;;;;;;25.90;15.15;;;;;;;;;;5102265;28;20269;-69
2023/03/06 07:27:13;;;;;;;26.48;16.55;;;;;;;;;;5101856;28;20233;-71
2023/03/06 07:29:41;;;;;;;26.65;16.50;;;;;;;;;;5102254;28;20228;-70
2023/03/06 07:32:08;;;;;;;26.55;15.77;;;;;;;;;;5102630;28;20364;-70
2023/03/06 07:34:36;;;;;;;31.00;16.77;;;;;;;;;;5102371;28;20493;-70
2023/03/06 07:37:03;;;;;;;32.17;17.75;;;;;;;;;;5102289;28;20196;-70
2023/03/06 07:39:29;;;;;;;28.13;17.25;;;;;;;;;;5101979;28;20272;-70
2023/03/06 07:41:55;;;;;;;26.02;17.00;;;;;;;;;;5102198;28;20496;-70
2023/03/06 07:44:21;;;;;;;26.88;16.98;;;;;;;;;;5102318;28;20195;-70
2023/03/06 07:46:48;;;;;;;27.98;17.77;;;;;;;;;;5101952;28;20503;-69
2023/03/06 07:49:14;;;;;;;25.13;16.10;;;;;;;;;;5101954;28;20200;-70
2023/03/06 07:51:41;;;;;;;27.55;16.50;;;;;;;;;;5102290;28;20526;-70
2023/03/06 07:54:08;;;;;;;24.83;16.10;;;;;;;;;;5102100;28;20436;-70
2023/03/06 07:56:34;;;;;;;27.10;15.65;;;;;;;;;;5102051;28;20516;-70
2023/03/06 07:59:00;;;;;;;26.42;15.43;;;;;;;;;;5101789;28;20222;-69
2023/03/06 08:01:27;;;;;;;25.35;15.27;;;;;;;;;;5101943;28;20195;-69
2023/03/06 08:03:53;;;;;;;22.05;14.35;;;;;;;;;;5099110;28;20227;-62
2023/03/06 08:06:21;;;;;;;23.23;13.82;;;;;;;;;;5084743;28;20214;-61
2023/03/06 08:08:49;;;;;;;25.67;15.02;;;;;;;;;;5086535;28;20523;-61
2023/03/06 08:11:16;;;;;;;23.95;14.98;;;;;;;;;;5089621;28;20208;-61
2023/03/06 08:13:43;;;;;;;26.88;15.32;;;;;;;;;;5087364;28;20208;-61
2023/03/06 08:16:09;;;;;;;26.27;15.52;;;;;;;;;;5085479;28;20515;-62
2023/03/06 08:18:38;;;;;;;24.63;14.75;;;;;;;;;;5089055;28;20439;-62
2023/03/06 08:21:05;;;;;;;21.02;13.85;;;;;;;;;;5086163;28;20203;-62
2023/03/06 08:23:31;;;;;;;22.45;14.48;;;;;;;;;;5088734;28;20374;-61
2023/03/06 08:26:00;;;;;;;22.98;13.88;;;;;;;;;;5099687;28;20248;-61
2023/03/06 08:28:27;;;;;;;20.00;13.18;;;;;;;;;;5102208;28;20228;-61
2023/03/06 08:30:53;;;;;;;19.85;13.52;;;;;;;;;;5101126;28;20211;-62
2023/03/06 08:33:19;;;;;;;26.85;13.70;;;;;;;;;;5102040;28;20218;-60
2023/03/06 08:35:47;;;;;;;19.25;13.27;;;;;;;;;;5102113;28;20211;-61
2023/03/06 08:38:13;;;;;;;24.75;13.95;;;;;;;;;;5101682;28;20235;-62
2023/03/06 08:40:39;;;;;;;24.08;13.73;;;;;;;;;;5102347;28;20203;-61
2023/03/06 08:43:09;;;;;;;25.60;14.48;;;;;;;;;;5101498;28;20208;-61
2023/03/06 08:45:36;;;;;;;23.58;14.73;;;;;;;;;;5098612;28;20212;-62
2023/03/06 08:48:02;;;;;;;24.50;13.75;;;;;;;;;;5101327;28;20313;-62
2023/03/06 08:50:28;;;;;;;23.00;13.40;;;;;;;;;;5102279;28;20242;-62
2023/03/06 08:52:55;;;;;;;21.45;13.45;;;;;;;;;;5101654;28;20220;-62
2023/03/06 08:55:21;;;;;;;20.20;12.68;;;;;;;;;;5101820;28;20204;-60
2023/03/06 08:57:47;;;;;;;24.98;12.20;;;;;;;;;;5090008;28;20317;-61
2023/03/06 09:00:15;;;;;;;27.00;13.50;;;;;;;;;;5099047;28;20227;-60
2023/03/06 09:02:42;;;;;;;21.95;11.93;;;;;;;;;;5096139;28;20200;-61
2023/03/06 09:05:08;;;;;;;24.13;11.02;;;;;;;;;;5086383;28;20540;-61
2023/03/06 09:07:35;;;;;;;17.17;9.57;;;;;;;;;;5088868;28;20254;-61
2023/03/06 09:10:02;;;;;;;12.90;9.43;;;;;;;;;;5100757;28;20204;-62
2023/03/06 09:12:28;;;;;;;17.05;9.45;;;;;;;;;;5095322;28;20204;-60
2023/03/06 09:14:54;;;;;;;14.40;9.50;;;;;;;;;;5100914;28;20380;-61
2023/03/06 09:17:22;;;;;;;11.75;7.75;;;;;;;;;;5096030;28;20433;-61
2023/03/06 09:19:49;;;;;;;10.20;7.10;;;;;;;;;;5096700;28;20231;-60
2023/03/06 09:22:15;;;;;;;8.32;6.88;;;;;;;;;;5088572;28;20492;-60
2023/03/06 09:24:42;;;;;;;7.78;6.97;;;;;;;;;;5100416;28;20545;-60
2023/03/06 09:27:08;;;;;;;9.50;6.95;;;;;;;;;;5099702;28;20203;-60
2023/03/06 09:29:34;;;;;;;6.82;6.20;;;;;;;;;;5100668;28;20248;-60
2023/03/06 09:32:00;;;;;;;8.25;6.93;;;;;;;;;;5090474;28;20204;-61
2023/03/06 09:34:28;;;;;;;11.07;6.95;;;;;;;;;;5090593;28;20246;-60
2023/03/06 09:36:54;;;;;;;10.75;6.65;;;;;;;;;;5091789;28;20227;-60
2023/03/06 09:39:20;;;;;;;7.47;6.75;;;;;;;;;;5094317;28;20461;-61
2023/03/06 09:41:48;;;;;;;6.32;5.63;;;;;;;;;;5089143;28;20200;-60
2023/03/06 09:44:15;;;;;;;11.13;7.07;;;;;;;;;;5089759;28;20204;-60
2023/03/06 09:46:45;;;;;;;7.40;6.70;;;;;;;;;;5089837;28;20208;-60
2023/03/06 09:49:18;;;;;;;9.57;6.68;;;;;;;;;;5089161;28;20200;-60
2023/03/06 09:51:51;;;;;;;7.13;6.43;;;;;;;;;;5089440;28;20204;-61
2023/03/06 09:54:20;;;;;;;7.47;6.68;;;;;;;;;;5097048;28;20207;-60
2023/03/06 09:56:48;;;;;;;9.23;6.07;;;;;;;;;;5099921;28;20207;-60
2023/03/06 09:59:17;;;;;;;8.73;6.90;;;;;;;;;;5099563;28;20261;-61
2023/03/06 10:01:45;;;;;;;12.52;7.32;;;;;;;;;;5098540;28;20245;-60
2023/03/06 10:04:22;;;;;;;9.85;7.32;;;;;;;;;;5099646;28;20203;-61
2023/03/06 10:06:50;;;;;;;9.45;7.20;;;;;;;;;;5097401;28;20459;-60
2023/03/06 10:09:18;;;;;;;7.70;6.63;;;;;;;;;;5099765;28;20208;-60
2023/03/06 10:11:47;;;;;;;10.05;6.25;;;;;;;;;;5099330;28;20511;-61
2023/03/06 10:14:18;;;;;;;6.93;6.13;;;;;;;;;;5099590;28;20227;-60
2023/03/06 10:16:44;;;;;;;10.45;6.30;;;;;;;;;;5093311;28;20280;-62
2023/03/06 10:19:12;;;;;;;7.63;6.90;;;;;;;;;;5096555;28;20237;-61
2023/03/06 10:21:43;;;;;;;6.68;6.07;;;;;;;;;;5099738;28;20476;-60
2023/03/06 10:24:16;;;;;;;7.18;6.35;;;;;;;;;;5095648;28;20204;-60
2023/03/06 10:26:44;;;;;;;6.40;5.80;;;;;;;;;;5099003;28;20577;-61
2023/03/06 10:29:29;;;;;;;6.40;5.80;;;;;;;;;;5098739;28;20219;-60
2023/03/06 10:31:59;;;;;;;7.13;6.05;;;;;;;;;;5093404;28;20203;-60
2023/03/06 10:34:29;;;;;;;10.10;6.60;;;;;;;;;;5095535;28;20417;-60
2023/03/06 10:36:57;;;;;;;6.63;5.80;;;;;;;;;;5094967;28;20246;-62
2023/03/06 10:39:27;;;;;;;7.05;6.38;;;;;;;;;;5096348;28;20223;-61
2023/03/06 10:41:53;;;;;;;7.97;7.13;;;;;;;;;;5090720;28;20250;-61
2023/03/06 10:44:20;;;;;;;10.15;6.30;;;;;;;;;;5099712;28;20565;-61
2023/03/06 10:46:47;;;;;;;6.60;5.97;;;;;;;;;;5087618;28;20461;-61
2023/03/06 10:49:23;;;;;;;7.75;6.30;;;;;;;;;;5096391;28;20200;-61
2023/03/06 10:51:55;;;;;;;7.32;5.85;;;;;;;;;;5098768;28;20324;-61
2023/03/06 10:54:21;;;;;;;6.53;5.93;;;;;;;;;;5089589;28;20503;-61
2023/03/06 10:56:49;;;;;;;6.63;5.70;;;;;;;;;;5098047;28;20407;-61
2023/03/06 10:59:16;;;;;;;5.50;5.00;;;;;;;;;;5094033;28;20457;-61
2023/03/06 11:01:43;;;;;;;5.82;5.32;;;;;;;;;;5092589;28;20207;-61
2023/03/06 11:04:21;;;;;;;6.18;4.88;;;;;;;;;;5091545;28;20286;-61
2023/03/06 11:06:47;;;;;;;7.47;6.15;;;;;;;;;;5092778;28;20383;-61
2023/03/06 11:09:15;;;;;;;6.55;5.95;;;;;;;;;;5098882;28;20534;-61
2023/03/06 11:11:41;;;;;;;7.93;6.10;;;;;;;;;;5099392;28;20207;-61
2023/03/06 11:14:13;;;;;;;7.90;5.95;;;;;;;;;;5099376;28;20207;-61
2023/03/06 11:16:39;;;;;;;6.20;5.60;;;;;;;;;;5098512;28;20218;-62
2023/03/06 11:19:17;;;;;;;6.13;5.63;;;;;;;;;;5095092;28;20208;-63
2023/03/06 11:21:58;;;;;;;6.05;5.45;;;;;;;;;;5092940;28;20324;-62
2023/03/06 11:24:24;;;;;;;6.95;5.63;;;;;;;;;;5093231;28;20208;-60
2023/03/06 11:26:54;;;;;;;6.82;5.40;;;;;;;;;;5095567;28;20268;-61
2023/03/06 11:29:32;;;;;;;7.53;6.50;;;;;;;;;;5095591;28;20204;-61
2023/03/06 11:32:03;;;;;;;7.15;5.53;;;;;;;;;;5091144;28;20208;-60
2023/03/06 11:34:38;;;;;;;7.18;5.68;;;;;;;;;;5091599;28;20221;-61
2023/03/06 11:37:07;;;;;;;6.30;5.70;;;;;;;;;;5098298;28;20248;-61
2023/03/06 11:39:36;;;;;;;6.20;5.60;;;;;;;;;;5097027;28;20611;-60
2023/03/06 11:42:04;;;;;;;6.75;5.25;;;;;;;;;;5085800;28;20207;-61
2023/03/06 11:44:36;;;;;;;7.10;6.07;;;;;;;;;;5083221;28;20203;-60
2023/03/06 11:47:06;;;;;;;8.80;6.03;;;;;;;;;;5085286;28;20247;-61
2023/03/06 11:49:33;;;;;;;6.22;5.70;;;;;;;;;;5095481;28;20207;-61
2023/03/06 11:52:03;;;;;;;7.88;6.40;;;;;;;;;;5094542;28;20205;-61
2023/03/06 11:54:29;;;;;;;6.70;6.05;;;;;;;;;;5084387;28;20267;-61
2023/03/06 11:56:57;;;;;;;7.65;6.45;;;;;;;;;;5087387;28;20421;-62
2023/03/06 11:59:29;;;;;;;7.22;6.03;;;;;;;;;;5083277;28;20250;-62
2023/03/06 12:02:02;;;;;;;6.85;6.13;;;;;;;;;;5098800;28;20250;-61
2023/03/06 12:04:37;;;;;;;7.07;6.38;;;;;;;;;;5097199;28;20444;-61
2023/03/06 12:07:10;;;;;;;7.63;5.97;;;;;;;;;;5101352;28;20208;-61
2023/03/06 12:09:41;;;;;;;8.23;6.45;;;;;;;;;;5100328;28;20211;-61
2023/03/06 12:12:14;;;;;;;7.03;6.32;;;;;;;;;;5092454;28;20403;-61
2023/03/06 12:14:46;;;;;;;7.03;6.32;;;;;;;;;;5102166;28;20427;-61
2023/03/06 12:17:20;;;;;;;7.25;6.18;;;;;;;;;;5095848;28;20204;-62
2023/03/06 12:19:52;;;;;;;7.68;6.32;;;;;;;;;;5101421;28;20283;-62
2023/03/06 12:22:27;;;;;;;7.53;6.00;;;;;;;;;;5101645;28;20279;-61
2023/03/06 12:24:58;;;;;;;6.13;5.45;;;;;;;;;;5102437;28;20207;-61
2023/03/06 12:27:28;;;;;;;7.10;6.15;;;;;;;;;;5100966;28;20353;-63
2023/03/06 12:30:10;;;;;;;7.30;6.05;;;;;;;;;;5101508;28;20393;-63
2023/03/06 12:32:44;;;;;;;8.68;7.40;;;;;;;;;;5096747;28;20211;-60
2023/03/06 12:35:34;;;;;;;11.52;7.38;;;;;;;;;;5101357;28;20204;-60
2023/03/06 12:38:05;;;;;;;6.85;5.93;;;;;;;;;;5079910;28;20203;-60
2023/03/06 12:40:46;;;;;;;7.72;6.07;;;;;;;;;;5100988;28;20227;-61
2023/03/06 12:43:28;;;;;;;7.57;6.15;;;;;;;;;;5087189;28;20204;-60
2023/03/06 12:45:57;;;;;;;8.35;6.57;;;;;;;;;;5085970;28;20204;-61
2023/03/06 12:48:26;;;;;;;8.00;6.20;;;;;;;;;;5086343;28;20291;-62
2023/03/06 12:50:53;;;;;;;7.07;6.38;;;;;;;;;;5082825;28;20225;-62
2023/03/06 12:53:24;;;;;;;7.15;6.22;;;;;;;;;;5083114;28;20208;-61
2023/03/06 12:55:50;;;;;;;6.93;6.22;;;;;;;;;;5084738;28;20215;-62
2023/03/06 12:58:35;;;;;;;8.13;6.57;;;;;;;;;;5081205;28;20435;-60
2023/03/06 13:01:04;;;;;;;7.63;5.78;;;;;;;;;;5087824;28;20239;-61
2023/03/06 13:03:38;;;;;;;9.07;6.07;;;;;;;;;;5100852;28;20450;-61
2023/03/06 13:06:26;;;;;;;6.18;5.57;;;;;;;;;;5097980;28;20203;-61
2023/03/06 13:09:03;;;;;;;6.68;6.03;;;;;;;;;;5097863;28;20215;-61
2023/03/06 13:11:44;;;;;;;8.25;5.90;;;;;;;;;;5085493;28;20200;-61
2023/03/06 13:14:24;;;;;;;6.85;5.60;;;;;;;;;;5085777;28;20426;-61
2023/03/06 13:16:50;;;;;;;7.95;5.88;;;;;;;;;;5100539;28;20215;-60
2023/03/06 13:19:20;;;;;;;8.38;6.18;;;;;;;;;;5099286;28;20207;-60
2023/03/06 13:22:07;;;;;;;7.00;6.15;;;;;;;;;;5099803;28;20465;-60
2023/03/06 13:24:34;;;;;;;7.28;6.57;;;;;;;;;;5100853;28;20203;-59
2023/03/06 13:27:02;;;;;;;6.38;5.65;;;;;;;;;;5100419;28;20204;-59
2023/03/06 13:29:58;;;;;;;7.35;5.80;;;;;;;;;;5100045;28;20400;-59
2023/03/06 13:32:28;;;;;;;7.10;5.70;;;;;;;;;;5087907;28;20215;-60
2023/03/06 13:34:56;;;;;;;7.28;6.10;;;;;;;;;;5094583;28;20199;-60
2023/03/06 13:37:47;;;;;;;7.68;6.43;;;;;;;;;;5095341;28;20249;-61
2023/03/06 13:40:14;;;;;;;6.90;6.25;;;;;;;;;;5089789;28;20273;-60
2023/03/06 13:42:55;;;;;;;7.55;5.85;;;;;;;;;;5092465;28;20224;-61
2023/03/06 13:45:23;;;;;;;8.27;6.68;;;;;;;;;;5091667;28;20226;-61
2023/03/06 13:47:52;;;;;;;6.65;6.03;;;;;;;;;;5092854;28;20261;-61
2023/03/06 13:50:28;;;;;;;7.13;6.43;;;;;;;;;;5099764;28;20199;-59
2023/03/06 13:53:07;;;;;;;6.25;5.65;;;;;;;;;;5087922;28;20266;-60
2023/03/06 13:55:37;;;;;;;7.13;6.18;;;;;;;;;;5088913;28;20200;-60
2023/03/06 13:58:17;;;;;;;8.13;5.80;;;;;;;;;;5089722;28;20204;-61
2023/03/06 14:00:52;;;;;;;8.98;6.07;;;;;;;;;;5094735;28;20238;-61
2023/03/06 14:03:28;;;;;;;6.70;6.07;;;;;;;;;;5099800;28;20249;-61
2023/03/06 14:05:57;;;;;;;6.38;5.78;;;;;;;;;;5099619;28;20245;-61
2023/03/06 14:08:24;;;;;;;8.38;6.20;;;;;;;;;;5100527;28;20208;-61
2023/03/06 14:10:59;;;;;;;8.43;5.60;;;;;;;;;;5098368;28;20204;-61
2023/03/06 14:13:27;;;;;;;8.90;6.25;;;;;;;;;;5095209;28;20207;-61
2023/03/06 14:15:54;;;;;;;6.93;5.85;;;;;;;;;;5089548;28;20388;-61
2023/03/06 14:18:23;;;;;;;7.57;6.05;;;;;;;;;;5091222;28;20456;-61
2023/03/06 14:20:51;;;;;;;8.00;5.70;;;;;;;;;;5095519;28;20557;-61
2023/03/06 14:23:24;;;;;;;6.10;5.50;;;;;;;;;;5097004;28;20204;-61
2023/03/06 14:25:54;;;;;;;8.63;6.10;;;;;;;;;;5098660;28;20211;-61
2023/03/06 14:28:24;;;;;;;6.50;5.70;;;;;;;;;;5095858;28;20243;-61
2023/03/06 14:30:51;;;;;;;7.05;5.18;;;;;;;;;;5087270;28;20239;-61
2023/03/06 14:33:25;;;;;;;7.30;5.25;;;;;;;;;;5093419;28;20215;-60